Time;durP1;ratioP1;P1;durP2;ratioP2;P2;SDS_P1;SDS_P2;PMS_P1;PMS_P2;Temp;Humidity;BMP_temperature;BMP_pressure;BME280_temperature;BME280_humidity;BME280_pressure;Samples;Min_cycle;Max_cycle;Signal;HPM_P1;HPM_P2
2023/07/15 00:02:16;;;;;;;7.85;5.00;;;;;;;20.54;59.91;100372.44;5053381;28;20028;-73
2023/07/15 00:04:41;;;;;;;10.35;5.30;;;;;;;20.51;59.16;100370.84;5056652;28;20068;-73
2023/07/15 00:07:07;;;;;;;6.35;5.10;;;;;;;20.48;60.67;100371.03;5052754;28;20032;-73
2023/07/15 00:09:35;;;;;;;6.18;5.57;;;;;;;20.50;58.53;100373.56;5054038;28;20032;-73
2023/07/15 00:12:01;;;;;;;6.95;6.13;;;;;;;20.48;57.81;100367.56;5054155;28;20167;-73
2023/07/15 00:14:28;;;;;;;7.57;5.88;;;;;;;20.40;60.10;100368.09;5048447;28;20029;-73
2023/07/15 00:16:54;;;;;;;6.07;4.95;;;;;;;20.40;62.19;100372.53;5061538;28;20017;-73
2023/07/15 00:19:20;;;;;;;5.70;5.10;;;;;;;20.32;62.65;100366.00;5055687;28;20465;-73
2023/07/15 00:21:46;;;;;;;9.07;4.68;;;;;;;20.25;62.67;100367.41;5052645;28;20107;-73
2023/07/15 00:24:12;;;;;;;8.13;4.18;;;;;;;20.22;63.20;100364.13;5054087;28;20029;-73
2023/07/15 00:26:37;;;;;;;5.97;3.65;;;;;;;20.21;60.02;100358.00;5052864;28;20039;-73
2023/07/15 00:29:04;;;;;;;7.85;3.38;;;;;;;20.14;61.32;100359.38;5053703;28;20028;-73
2023/07/15 00:31:31;;;;;;;4.88;3.20;;;;;;;20.21;61.61;100373.00;5056572;28;20095;-73
2023/07/15 00:33:56;;;;;;;3.83;3.13;;;;;;;20.24;61.89;100368.38;5052835;28;20036;-73
2023/07/15 00:36:22;;;;;;;3.92;3.03;;;;;;;20.26;62.79;100369.09;5052413;28;20017;-73
2023/07/15 00:38:47;;;;;;;5.78;3.72;;;;;;;20.30;60.25;100365.25;5053448;28;20526;-73
2023/07/15 00:41:19;;;;;;;28.20;23.15;;;;;;;20.40;58.90;100361.94;5052866;28;20031;-73
2023/07/15 00:46:19;;;;;;;8.80;5.60;;;;;;;20.39;61.46;100373.50;5051651;28;20449;-73
2023/07/15 00:49:01;;;;;;;8.77;6.15;;;;;;;20.38;60.57;100380.59;5054088;28;20122;-73
2023/07/15 00:51:29;;;;;;;6.35;4.70;;;;;;;20.32;61.02;100381.88;5050638;28;20118;-74
2023/07/15 00:53:54;;;;;;;6.40;3.47;;;;;;;20.26;60.07;100381.47;5053422;28;20036;-73
2023/07/15 00:56:21;;;;;;;6.82;3.28;;;;;;;20.20;61.29;100382.75;5052665;28;20033;-73
2023/07/15 00:58:48;;;;;;;5.50;3.28;;;;;;;20.16;63.15;100388.38;5052788;28;20060;-73
2023/07/15 01:01:14;;;;;;;5.65;3.47;;;;;;;20.07;62.00;100379.28;5061637;28;20032;-73
2023/07/15 01:03:44;;;;;;;4.95;3.10;;;;;;;19.99;63.60;100381.63;5056916;28;20442;-73
2023/07/15 01:06:10;;;;;;;5.00;3.03;;;;;;;19.88;61.85;100382.38;5053481;28;20036;-73
2023/07/15 01:08:35;;;;;;;4.32;2.80;;;;;;;19.78;62.52;100379.53;5053401;28;20033;-73
2023/07/15 01:11:01;;;;;;;4.55;2.58;;;;;;;19.71;62.44;100367.66;5061482;28;20028;-73
2023/07/15 01:13:26;;;;;;;5.40;3.30;;;;;;;19.62;64.71;100385.00;5055463;28;20391;-73
2023/07/15 01:15:51;;;;;;;3.85;2.95;;;;;;;19.58;63.16;100380.00;5057203;28;20380;-73
2023/07/15 01:18:17;;;;;;;5.82;2.65;;;;;;;19.53;63.80;100382.97;5070339;28;20123;-73
2023/07/15 01:20:42;;;;;;;9.70;2.95;;;;;;;19.51;64.27;100381.38;5052395;28;20469;-73
2023/07/15 01:23:07;;;;;;;4.05;2.70;;;;;;;19.42;64.44;100390.78;5059008;28;20021;-73
2023/07/15 01:25:33;;;;;;;9.50;3.10;;;;;;;19.38;65.82;100384.84;5056039;28;20433;-73
2023/07/15 01:27:58;;;;;;;5.00;2.95;;;;;;;19.30;67.31;100378.41;5057876;28;20032;-73
2023/07/15 01:30:23;;;;;;;7.68;2.88;;;;;;;19.24;65.67;100377.00;5055370;28;20037;-73
2023/07/15 01:32:49;;;;;;;4.57;2.47;;;;;;;19.23;65.70;100383.25;5055474;28;20449;-73
2023/07/15 01:35:14;;;;;;;6.85;2.70;;;;;;;19.13;65.27;100374.25;5061259;28;20040;-73
2023/07/15 01:37:40;;;;;;;7.00;3.15;;;;;;;19.20;65.47;100386.09;5055657;28;20028;-73
2023/07/15 01:40:09;;;;;;;2.67;2.40;;;;;;;19.10;66.45;100383.22;5062586;28;20024;-73
2023/07/15 01:42:34;;;;;;;3.10;2.58;;;;;;;19.08;65.98;100382.47;5054237;28;20393;-73
2023/07/15 01:45:00;;;;;;;4.57;2.65;;;;;;;19.07;66.80;100393.16;5059111;28;20388;-73
2023/07/15 01:47:25;;;;;;;7.85;3.15;;;;;;;18.99;69.62;100388.34;5056516;28;20025;-73
2023/07/15 01:49:50;;;;;;;7.95;3.33;;;;;;;19.01;68.11;100401.47;5069431;28;20495;-73
2023/07/15 01:52:16;;;;;;;7.47;2.90;;;;;;;18.93;67.38;100399.31;5053638;28;20029;-73
2023/07/15 01:54:41;;;;;;;4.45;2.60;;;;;;;18.94;67.37;100404.50;5056845;28;20491;-73
2023/07/15 01:57:06;;;;;;;4.53;2.90;;;;;;;18.94;68.99;100406.31;5058760;28;20036;-73
2023/07/15 01:59:31;;;;;;;4.00;2.70;;;;;;;18.89;69.36;100403.94;5058604;28;20021;-73
2023/07/15 02:01:57;;;;;;;4.30;2.50;;;;;;;18.86;72.22;100404.16;5064341;28;20102;-73
2023/07/15 02:04:23;;;;;;;4.35;2.50;;;;;;;18.79;70.34;100410.78;5058769;28;20028;-73
2023/07/15 02:06:48;;;;;;;5.80;2.90;;;;;;;18.71;71.37;100402.50;5053600;28;20032;-73
2023/07/15 02:09:14;;;;;;;3.95;2.63;;;;;;;18.70;70.33;100406.94;5061502;28;20046;-73
2023/07/15 02:11:39;;;;;;;6.10;2.70;;;;;;;18.70;72.62;100398.13;5051882;28;20103;-73
2023/07/15 02:14:05;;;;;;;3.95;2.60;;;;;;;18.70;74.03;100408.69;5061031;28;20032;-73
2023/07/15 02:16:31;;;;;;;3.05;2.65;;;;;;;18.64;71.85;100393.28;5056003;28;20032;-73
2023/07/15 02:18:56;;;;;;;4.97;2.65;;;;;;;18.66;72.26;100420.41;5054456;28;20025;-73
2023/07/15 02:21:24;;;;;;;6.88;2.95;;;;;;;18.58;72.78;100404.22;5056167;28;20544;-73
2023/07/15 02:23:50;;;;;;;5.65;2.55;;;;;;;18.57;72.74;100413.06;5048245;28;20044;-73
2023/07/15 02:26:15;;;;;;;3.72;2.55;;;;;;;18.49;73.34;100411.75;5061619;28;20460;-73
2023/07/15 02:28:41;;;;;;;5.03;2.50;;;;;;;18.46;73.53;100408.47;5053477;28;20029;-73
2023/07/15 02:31:06;;;;;;;3.17;2.65;;;;;;;18.48;75.77;100415.34;5059784;28;20124;-73
2023/07/15 02:33:31;;;;;;;4.82;2.92;;;;;;;18.47;75.97;100408.38;5056021;28;20028;-73
2023/07/15 02:35:57;;;;;;;5.80;3.25;;;;;;;18.47;75.78;100413.66;5055005;28;20053;-73
2023/07/15 02:38:22;;;;;;;7.20;2.78;;;;;;;18.47;74.99;100415.44;5053739;28;20107;-73
2023/07/15 02:40:48;;;;;;;4.22;3.10;;;;;;;18.38;76.26;100414.25;5056246;28;20048;-73
2023/07/15 02:43:13;;;;;;;5.63;2.85;;;;;;;18.36;76.81;100420.56;5058705;28;20029;-73
2023/07/15 02:45:39;;;;;;;6.75;3.10;;;;;;;18.32;77.35;100413.78;5056738;28;20025;-73
2023/07/15 02:48:04;;;;;;;6.78;2.80;;;;;;;18.22;77.19;100410.88;5063913;28;20081;-73
2023/07/15 02:50:29;;;;;;;6.20;2.88;;;;;;;18.18;78.09;100406.69;5056499;28;20515;-73
2023/07/15 02:52:55;;;;;;;5.47;2.90;;;;;;;18.08;77.88;100403.78;5059670;28;20040;-73
2023/07/15 02:55:20;;;;;;;6.78;3.13;;;;;;;18.05;77.74;100411.91;5053697;28;20041;-73
2023/07/15 02:57:45;;;;;;;7.47;3.03;;;;;;;17.95;78.41;100405.47;5059337;28;20021;-73
2023/07/15 03:00:13;;;;;;;7.22;3.00;;;;;;;17.88;79.18;100412.91;5057672;28;20032;-73
2023/07/15 03:02:39;;;;;;;9.07;3.28;;;;;;;17.87;79.48;100413.88;5059555;28;20021;-73
2023/07/15 03:05:05;;;;;;;3.72;3.20;;;;;;;17.82;81.50;100409.81;5056970;28;20111;-73
2023/07/15 03:07:31;;;;;;;11.50;3.30;;;;;;;17.74;81.21;100410.25;5057959;28;20028;-73
2023/07/15 03:09:56;;;;;;;6.40;3.00;;;;;;;17.74;82.16;100411.09;5054857;28;20028;-73
2023/07/15 03:12:22;;;;;;;4.70;3.28;;;;;;;17.66;83.38;100407.22;5054550;28;20021;-73
2023/07/15 03:14:47;;;;;;;7.63;3.67;;;;;;;17.58;83.04;100401.56;5057346;28;20060;-73
2023/07/15 03:17:15;;;;;;;5.10;3.05;;;;;;;17.57;82.63;100397.22;5052486;28;20365;-72
2023/07/15 03:19:40;;;;;;;4.75;2.95;;;;;;;17.48;83.62;100412.63;5059740;28;21419;-73
2023/07/15 03:22:06;;;;;;;4.97;3.15;;;;;;;17.42;84.75;100402.44;5057767;28;20029;-73
2023/07/15 03:24:31;;;;;;;3.58;2.85;;;;;;;17.39;83.46;100407.06;5059095;28;20024;-73
2023/07/15 03:26:56;;;;;;;6.72;3.38;;;;;;;17.37;84.11;100412.44;5060255;28;20102;-73
2023/07/15 03:29:22;;;;;;;5.53;3.15;;;;;;;17.32;85.66;100412.69;5066455;28;20107;-72
2023/07/15 03:31:48;;;;;;;5.35;3.50;;;;;;;17.27;85.16;100403.38;5049702;28;20129;-73
2023/07/15 03:34:13;;;;;;;6.68;3.47;;;;;;;17.19;85.53;100398.53;5058680;28;20039;-73
2023/07/15 03:36:39;;;;;;;10.60;3.42;;;;;;;17.25;85.93;100411.34;5059344;28;20028;-73
2023/07/15 03:39:05;;;;;;;6.43;3.55;;;;;;;17.19;85.74;100411.69;5052094;28;20080;-73
2023/07/15 03:41:30;;;;;;;6.15;3.50;;;;;;;17.21;87.03;100411.63;5064443;28;20420;-73
2023/07/15 03:43:56;;;;;;;3.53;3.22;;;;;;;17.19;86.92;100416.13;5056032;28;20104;-73
2023/07/15 03:46:23;;;;;;;6.30;4.15;;;;;;;17.11;86.27;100413.94;5069226;28;20033;-73
2023/07/15 03:48:48;;;;;;;6.35;3.72;;;;;;;17.08;87.61;100416.75;5060645;28;20472;-73
2023/07/15 03:51:14;;;;;;;5.43;4.05;;;;;;;17.04;88.20;100408.19;5058959;28;20036;-73
2023/07/15 03:53:39;;;;;;;5.65;3.85;;;;;;;17.03;88.32;100406.47;5056386;28;20076;-73
2023/07/15 03:56:04;;;;;;;6.22;3.60;;;;;;;17.02;88.81;100393.41;5058907;28;20028;-73
2023/07/15 03:58:30;;;;;;;7.30;3.70;;;;;;;16.94;89.72;100391.22;5062520;28;20025;-73
2023/07/15 04:00:55;;;;;;;5.95;3.70;;;;;;;17.02;90.78;100410.03;5064837;28;20032;-73
2023/07/15 04:03:21;;;;;;;4.22;3.30;;;;;;;17.00;91.24;100398.75;5064718;28;20146;-73
2023/07/15 04:05:46;;;;;;;6.75;3.50;;;;;;;16.95;89.38;100406.06;5056001;28;20423;-73
2023/07/15 04:08:12;;;;;;;4.25;3.42;;;;;;;16.96;89.97;100405.13;5060536;28;20371;-73
2023/07/15 04:10:37;;;;;;;5.55;3.20;;;;;;;16.99;89.54;100404.09;5067005;28;20060;-72
2023/07/15 04:13:03;;;;;;;7.07;3.58;;;;;;;16.98;90.72;100395.34;5056634;28;20049;-73
2023/07/15 04:15:29;;;;;;;5.45;3.38;;;;;;;16.95;91.04;100397.31;5059903;28;20427;-73
2023/07/15 04:17:55;;;;;;;10.23;3.83;;;;;;;17.06;90.29;100400.19;5056379;28;20025;-73
2023/07/15 04:20:21;;;;;;;7.40;3.20;;;;;;;17.05;91.58;100403.75;5058974;28;20032;-73
2023/07/15 04:22:46;;;;;;;4.88;3.45;;;;;;;17.08;90.56;100404.44;5063517;28;20052;-73
2023/07/15 04:25:12;;;;;;;5.55;3.42;;;;;;;17.12;91.41;100398.97;5056435;28;20055;-73
2023/07/15 04:27:38;;;;;;;6.25;3.22;;;;;;;17.14;91.48;100397.97;5062997;28;20021;-73
2023/07/15 04:30:05;;;;;;;7.80;3.30;;;;;;;17.17;91.25;100402.22;5059136;28;20041;-73
2023/07/15 04:32:30;;;;;;;5.65;3.30;;;;;;;17.22;91.63;100408.03;5059979;28;20029;-73
2023/07/15 04:34:55;;;;;;;6.80;3.25;;;;;;;17.29;91.64;100412.84;5052901;28;20071;-73
2023/07/15 04:37:20;;;;;;;7.57;4.30;;;;;;;17.27;91.83;100408.63;5053101;28;20024;-73
2023/07/15 04:39:46;;;;;;;9.90;3.25;;;;;;;17.29;91.63;100407.59;5054954;28;20036;-73
2023/07/15 04:42:11;;;;;;;10.02;3.25;;;;;;;17.35;92.28;100414.28;5061151;28;20029;-73
2023/07/15 04:44:36;;;;;;;7.22;3.60;;;;;;;17.36;92.85;100418.63;5059005;28;20099;-73
2023/07/15 04:47:02;;;;;;;8.52;3.03;;;;;;;17.48;92.93;100423.19;5053350;28;20170;-73
2023/07/15 04:49:27;;;;;;;6.15;3.20;;;;;;;17.52;93.27;100422.06;5060793;28;20108;-73
2023/07/15 04:51:53;;;;;;;5.32;3.15;;;;;;;17.57;92.95;100426.22;5064160;28;20028;-72
2023/07/15 04:54:18;;;;;;;4.15;3.10;;;;;;;17.63;92.73;100431.97;5054769;28;20025;-73
2023/07/15 04:56:44;;;;;;;5.22;3.53;;;;;;;17.71;92.85;100428.88;5056920;28;20107;-73
2023/07/15 04:59:09;;;;;;;3.95;3.15;;;;;;;17.77;94.48;100428.53;5054952;28;20044;-73
2023/07/15 05:01:35;;;;;;;6.78;3.03;;;;;;;17.78;93.68;100424.97;5059147;28;20028;-73
2023/07/15 05:04:01;;;;;;;6.45;3.90;;;;;;;17.90;94.31;100418.09;5059113;28;20499;-72
2023/07/15 05:06:28;;;;;;;5.93;3.10;;;;;;;17.92;93.50;100421.47;5061632;28;20036;-73
2023/07/15 05:08:53;;;;;;;4.05;3.20;;;;;;;18.01;93.83;100419.13;5055843;28;20035;-73
2023/07/15 05:11:19;;;;;;;6.13;3.25;;;;;;;18.07;93.65;100419.72;5055333;28;20427;-72
2023/07/15 05:13:46;;;;;;;9.15;2.95;;;;;;;18.12;93.17;100422.94;5057596;28;20079;-73
2023/07/15 05:16:12;;;;;;;6.25;3.00;;;;;;;18.23;93.10;100436.28;5068898;28;20443;-73
2023/07/15 05:18:37;;;;;;;9.00;3.60;;;;;;;18.30;94.53;100424.41;5059896;28;20032;-73
2023/07/15 05:21:03;;;;;;;4.05;2.85;;;;;;;18.39;93.20;100426.47;5062273;28;20369;-73
2023/07/15 05:23:31;;;;;;;6.68;3.28;;;;;;;18.47;95.16;100421.59;5057200;28;20122;-73
2023/07/15 05:25:59;;;;;;;5.10;2.90;;;;;;;18.48;91.05;100399.53;5059369;28;20021;-73
2023/07/15 05:28:30;;;;;;;5.78;3.00;;;;;;;18.60;89.48;100418.16;5056738;28;20028;-73
2023/07/15 05:30:58;;;;;;;6.22;2.92;;;;;;;18.73;90.35;100419.09;5058874;28;20049;-73
2023/07/15 05:33:23;;;;;;;9.43;2.72;;;;;;;18.82;89.69;100418.50;5054532;28;20488;-73
2023/07/15 05:35:48;;;;;;;8.45;3.42;;;;;;;18.92;88.58;100424.88;5055490;28;20025;-73
2023/07/15 05:38:14;;;;;;;5.53;2.53;;;;;;;19.07;84.41;100423.06;5060898;28;20024;-73
2023/07/15 05:40:42;;;;;;;3.42;2.70;;;;;;;19.21;84.96;100416.84;5055796;28;20111;-73
2023/07/15 05:43:10;;;;;;;5.95;2.80;;;;;;;19.45;83.53;100424.94;5061394;28;20078;-73
2023/07/15 05:45:36;;;;;;;5.00;2.50;;;;;;;19.54;82.68;100415.53;5054042;28;20025;-73
2023/07/15 05:48:01;;;;;;;5.97;3.95;;;;;;;19.55;83.38;100418.06;5066226;28;20059;-73
2023/07/15 05:50:29;;;;;;;5.40;3.03;;;;;;;19.57;85.51;100420.63;5057286;28;20056;-73
2023/07/15 05:52:55;;;;;;;9.65;3.28;;;;;;;19.57;83.73;100428.56;5053663;28;20044;-74
2023/07/15 05:55:20;;;;;;;6.50;3.08;;;;;;;19.62;83.67;100424.66;5057081;28;20018;-74
2023/07/15 05:57:45;;;;;;;6.38;2.70;;;;;;;19.78;82.50;100439.50;5055393;28;20092;-74
2023/07/15 06:00:11;;;;;;;4.38;2.97;;;;;;;19.82;83.85;100427.78;5060497;28;20044;-73
2023/07/15 06:02:38;;;;;;;13.18;3.15;;;;;;;19.96;81.77;100438.25;5063917;28;20125;-73
2023/07/15 06:05:04;;;;;;;5.20;3.05;;;;;;;20.02;81.54;100431.69;5065033;28;20031;-73
2023/07/15 06:07:29;;;;;;;4.57;2.53;;;;;;;20.03;81.20;100431.56;5057010;28;20029;-73
2023/07/15 06:09:55;;;;;;;9.55;3.00;;;;;;;20.08;80.52;100432.13;5057802;28;20032;-73
2023/07/15 06:12:20;;;;;;;5.40;2.42;;;;;;;20.18;80.70;100447.34;5054195;28;20033;-73
2023/07/15 06:14:45;;;;;;;6.57;3.08;;;;;;;20.23;82.40;100443.41;5058938;28;20060;-73
2023/07/15 06:17:11;;;;;;;8.98;2.50;;;;;;;20.28;83.92;100443.94;5068432;28;20024;-73
2023/07/15 06:19:36;;;;;;;5.22;2.60;;;;;;;20.32;81.37;100426.88;5055398;28;20079;-73
2023/07/15 06:22:01;;;;;;;3.00;2.40;;;;;;;20.57;82.92;100433.13;5052468;28;20124;-73
2023/07/15 06:24:27;;;;;;;5.00;2.85;;;;;;;20.79;82.77;100440.34;5057808;28;20024;-73
2023/07/15 06:26:52;;;;;;;9.48;2.67;;;;;;;20.96;81.03;100440.00;5059394;28;20067;-73
2023/07/15 06:29:17;;;;;;;8.18;2.40;;;;;;;20.98;81.38;100447.81;5056238;28;20028;-73
2023/07/15 06:31:43;;;;;;;4.30;2.40;;;;;;;20.85;82.74;100420.53;5061794;28;20053;-73
2023/07/15 06:34:09;;;;;;;4.32;2.47;;;;;;;20.81;82.61;100444.59;5052057;28;20437;-73
2023/07/15 06:36:35;;;;;;;3.53;2.60;;;;;;;20.71;81.70;100440.91;5055622;28;20056;-73
2023/07/15 06:39:01;;;;;;;3.13;2.10;;;;;;;20.77;84.86;100437.00;5052976;28;20485;-73
2023/07/15 06:41:26;;;;;;;3.75;2.20;;;;;;;21.08;82.39;100448.81;5060270;28;20070;-73
2023/07/15 06:43:51;;;;;;;9.95;2.50;;;;;;;21.45;80.11;100446.97;5051829;28;20051;-73
2023/07/15 06:46:17;;;;;;;3.97;2.42;;;;;;;21.80;78.92;100437.28;5061915;28;20050;-73
2023/07/15 06:48:44;;;;;;;4.90;2.55;;;;;;;21.84;78.90;100428.13;5062065;28;20025;-73
2023/07/15 06:51:11;;;;;;;3.85;2.17;;;;;;;21.96;79.65;100435.16;5057373;28;20037;-73
2023/07/15 06:53:37;;;;;;;4.35;2.28;;;;;;;21.93;78.60;100425.59;5057106;28;20032;-73
2023/07/15 06:56:02;;;;;;;3.47;2.30;;;;;;;21.94;78.21;100431.75;5056163;28;20393;-73
2023/07/15 06:58:28;;;;;;;5.05;2.40;;;;;;;21.91;80.27;100427.56;5054566;28;20385;-73
2023/07/15 07:00:53;;;;;;;5.57;2.30;;;;;;;22.06;79.24;100428.16;5060005;28;20036;-73
2023/07/15 07:03:18;;;;;;;4.78;2.30;;;;;;;22.20;78.72;100438.59;5067297;28;20107;-73
2023/07/15 07:05:44;;;;;;;4.68;2.53;;;;;;;22.32;75.74;100446.53;5054552;28;20033;-73
2023/07/15 07:08:09;;;;;;;6.22;2.40;;;;;;;22.51;77.22;100440.63;5055352;28;20496;-73
2023/07/15 07:10:34;;;;;;;3.67;2.05;;;;;;;22.68;77.45;100435.63;5057417;28;20043;-73
2023/07/15 07:13:00;;;;;;;5.75;2.33;;;;;;;22.97;71.89;100428.97;5063885;28;20124;-72
2023/07/15 07:15:27;;;;;;;2.42;2.00;;;;;;;23.18;71.11;100439.63;5058855;28;20028;-73
2023/07/15 07:17:52;;;;;;;3.92;2.15;;;;;;;23.36;68.76;100424.81;5056873;28;20028;-73
2023/07/15 07:20:17;;;;;;;3.53;2.10;;;;;;;23.53;68.44;100434.03;5060481;28;20500;-73
2023/07/15 07:22:43;;;;;;;3.88;2.28;;;;;;;23.55;69.68;100432.94;5062817;28;20025;-73
2023/07/15 07:25:09;;;;;;;5.95;2.15;;;;;;;23.60;65.69;100441.34;5057508;28;20060;-73
2023/07/15 07:27:34;;;;;;;4.72;2.13;;;;;;;23.58;67.88;100440.66;5064985;28;20052;-73
2023/07/15 07:29:59;;;;;;;4.40;1.98;;;;;;;23.51;68.96;100443.94;5057170;28;20103;-73
2023/07/15 07:32:26;;;;;;;4.97;2.05;;;;;;;23.56;68.10;100445.25;5057359;28;20028;-73
2023/07/15 07:34:51;;;;;;;2.83;1.80;;;;;;;23.60;68.94;100444.00;5052464;28;20021;-73
2023/07/15 07:37:17;;;;;;;4.10;1.92;;;;;;;23.58;69.01;100445.97;5052670;28;20031;-73
2023/07/15 07:39:42;;;;;;;4.35;2.17;;;;;;;23.68;69.57;100463.84;5061039;28;20372;-73
2023/07/15 07:42:08;;;;;;;3.80;2.03;;;;;;;23.68;68.03;100448.75;5053625;28;20064;-73
2023/07/15 07:44:33;;;;;;;3.33;1.90;;;;;;;23.65;69.89;100445.47;5057452;28;20054;-73
2023/07/15 07:46:59;;;;;;;3.22;2.22;;;;;;;23.70;70.29;100432.63;5062636;28;20032;-73
2023/07/15 07:49:24;;;;;;;6.35;2.00;;;;;;;23.80;73.04;100444.19;5059848;28;20040;-73
2023/07/15 07:51:49;;;;;;;3.17;2.00;;;;;;;23.99;73.04;100449.63;5071300;28;20078;-73
2023/07/15 07:54:15;;;;;;;4.35;2.00;;;;;;;24.20;70.14;100444.28;5057123;28;20041;-73
2023/07/15 07:56:40;;;;;;;1.60;1.50;;;;;;;24.23;69.81;100451.13;5068470;28;20020;-73
2023/07/15 07:59:05;;;;;;;2.67;1.83;;;;;;;24.27;69.49;100426.78;5054908;28;20086;-73
2023/07/15 08:01:34;;;;;;;4.47;1.77;;;;;;;24.27;71.49;100434.75;5058380;28;20033;-72
2023/07/15 08:04:00;;;;;;;5.05;1.80;;;;;;;24.01;71.57;100437.03;5057477;28;20056;-73
2023/07/15 08:06:25;;;;;;;3.13;1.52;;;;;;;23.72;71.86;100441.34;5058514;28;20428;-73
2023/07/15 08:08:51;;;;;;;3.45;1.77;;;;;;;23.53;71.93;100448.16;5058799;28;20033;-73
2023/07/15 08:11:16;;;;;;;2.55;1.70;;;;;;;23.73;72.84;100457.16;5054187;28;20021;-73
2023/07/15 08:13:42;;;;;;;4.60;2.00;;;;;;;24.16;72.08;100463.28;5055328;28;20516;-73
2023/07/15 08:16:36;;;;;;;3.60;1.77;;;;;;;24.55;72.19;100448.34;5069035;28;20028;-73
2023/07/15 08:19:04;;;;;;;2.42;1.77;;;;;;;24.95;68.11;100458.97;5050748;28;20428;-73
2023/07/15 08:21:29;;;;;;;3.25;1.80;;;;;;;25.19;65.91;100457.75;5061389;28;20379;-73
2023/07/15 08:23:55;;;;;;;3.22;1.73;;;;;;;25.23;67.81;100459.16;5053918;28;20108;-73
2023/07/15 08:26:21;;;;;;;3.83;1.80;;;;;;;25.41;69.43;100457.47;5059166;28;20082;-73
2023/07/15 08:28:47;;;;;;;4.00;1.77;;;;;;;25.46;66.83;100465.06;5054925;28;20064;-74
2023/07/15 08:31:12;;;;;;;3.78;1.90;;;;;;;25.31;68.43;100453.09;5062252;28;20076;-73
2023/07/15 08:33:37;;;;;;;2.35;1.67;;;;;;;25.09;69.92;100470.22;5057500;28;20457;-73
2023/07/15 08:36:03;;;;;;;5.85;1.88;;;;;;;24.98;69.68;100461.38;5061199;28;20051;-73
2023/07/15 08:38:29;;;;;;;5.45;2.17;;;;;;;24.90;68.64;100468.34;5060011;28;20063;-73
2023/07/15 08:40:59;;;;;;;4.18;1.90;;;;;;;24.85;70.01;100467.91;5053446;28;20037;-72
2023/07/15 08:43:24;;;;;;;3.58;2.20;;;;;;;25.00;67.10;100470.03;5063196;28;20039;-73
2023/07/15 08:45:49;;;;;;;4.00;2.47;;;;;;;25.13;64.54;100475.16;5058891;28;20028;-73
2023/07/15 08:48:15;;;;;;;4.32;2.33;;;;;;;25.26;65.35;100490.88;5059675;28;20064;-73
2023/07/15 08:50:40;;;;;;;3.22;2.35;;;;;;;25.24;65.89;100487.50;5056177;28;20396;-74
2023/07/15 08:53:05;;;;;;;4.60;2.40;;;;;;;25.11;64.58;100492.22;5059410;28;20107;-73
2023/07/15 08:55:31;;;;;;;4.10;2.20;;;;;;;24.90;64.00;100501.19;5063951;28;20025;-73
2023/07/15 08:58:00;;;;;;;7.00;2.55;;;;;;;24.61;63.91;100501.09;5057855;28;20424;-73
2023/07/15 09:00:26;;;;;;;4.82;2.28;;;;;;;24.48;62.85;100524.47;5047889;28;20025;-73
2023/07/15 09:02:52;;;;;;;8.73;2.78;;;;;;;24.24;63.58;100522.09;5055546;28;20419;-73
2023/07/15 09:05:17;;;;;;;6.93;2.45;;;;;;;23.93;64.42;100516.69;5057015;28;20055;-73
2023/07/15 09:07:44;;;;;;;4.18;2.50;;;;;;;23.67;63.87;100520.66;5057677;28;20025;-73
2023/07/15 09:10:12;;;;;;;17.35;5.80;;;;;;;23.39;65.50;100522.97;5058386;28;20389;-73
2023/07/15 09:12:39;;;;;;;7.07;3.03;;;;;;;23.18;66.45;100504.28;5061910;28;20043;-73
2023/07/15 09:15:06;;;;;;;8.95;3.47;;;;;;;23.26;67.82;100516.97;5049539;28;20052;-73
2023/07/15 09:17:31;;;;;;;11.43;4.18;;;;;;;23.37;68.91;100514.25;5060270;28;20052;-73
2023/07/15 09:19:56;;;;;;;3.85;2.10;;;;;;;23.69;66.26;100510.78;5057771;28;20152;-73
2023/07/15 09:22:24;;;;;;;6.65;2.63;;;;;;;24.00;68.01;100506.38;5066309;28;20429;-73
2023/07/15 09:24:49;;;;;;;4.90;2.45;;;;;;;24.42;64.42;100517.84;5049176;28;20024;-73
2023/07/15 09:27:14;;;;;;;3.10;2.45;;;;;;;24.51;64.76;100516.22;5052722;28;20503;-72
2023/07/15 09:29:40;;;;;;;9.57;2.28;;;;;;;24.76;62.76;100506.91;5052157;28;20100;-73
2023/07/15 09:32:07;;;;;;;5.57;2.40;;;;;;;24.73;65.50;100509.84;5053430;28;20495;-73
2023/07/15 09:34:38;;;;;;;3.53;2.10;;;;;;;24.63;64.55;100508.97;5054865;28;20103;-73
2023/07/15 09:37:03;;;;;;;7.28;2.67;;;;;;;24.39;63.91;100519.91;5056873;28;20060;-72
2023/07/15 09:39:28;;;;;;;3.97;2.15;;;;;;;24.20;67.04;100523.34;5057985;28;20054;-73
2023/07/15 09:42:01;;;;;;;6.13;2.38;;;;;;;24.06;66.17;100522.66;5052545;28;20101;-73
2023/07/15 09:44:37;;;;;;;4.30;2.40;;;;;;;24.27;66.64;100525.31;5050135;28;20071;-73
2023/07/15 09:47:03;;;;;;;4.72;2.05;;;;;;;24.38;67.37;100534.22;5059556;28;20040;-73
2023/07/15 09:49:30;;;;;;;5.05;2.42;;;;;;;24.27;67.25;100540.47;5051754;28;20024;-73
2023/07/15 09:51:57;;;;;;;4.03;2.30;;;;;;;24.08;67.53;100537.69;5061841;28;20472;-73
2023/07/15 09:54:25;;;;;;;4.15;2.50;;;;;;;24.13;66.78;100560.25;5051906;28;20040;-74
2023/07/15 09:56:56;;;;;;;4.65;2.20;;;;;;;23.79;68.82;100557.78;5061401;28;20039;-73
2023/07/15 09:59:24;;;;;;;4.13;2.25;;;;;;;23.33;70.24;100560.72;5053544;28;20017;-73
2023/07/15 10:02:03;;;;;;;5.63;2.20;;;;;;;23.09;73.09;100567.06;5061113;28;20111;-73
2023/07/15 10:04:41;;;;;;;4.40;2.50;;;;;;;23.00;72.55;100569.59;5044937;28;20032;-72
2023/07/15 10:07:06;;;;;;;6.75;2.50;;;;;;;22.75;76.38;100541.44;5050756;28;20025;-73
2023/07/15 10:09:32;;;;;;;4.43;2.30;;;;;;;22.76;77.93;100556.41;5054973;28;20029;-73
2023/07/15 10:11:59;;;;;;;7.05;2.70;;;;;;;22.31;82.91;100564.34;5059386;28;20112;-73
2023/07/15 10:14:27;;;;;;;2.63;2.35;;;;;;;21.53;88.94;100549.84;5055955;28;20029;-72
2023/07/15 10:17:14;;;;;;;4.60;2.70;;;;;;;20.88;97.42;100536.88;5058584;28;20035;-73
2023/07/15 10:19:40;;;;;;;5.63;2.55;;;;;;;20.63;99.70;100524.50;5053987;28;20381;-73
2023/07/15 10:22:05;;;;;;;5.15;2.67;;;;;;;20.44;100.00;100514.34;5056945;28;20490;-72
2023/07/15 10:24:32;;;;;;;5.93;2.17;;;;;;;20.37;100.00;100521.84;5055438;28;20020;-73
2023/07/15 10:27:00;;;;;;;3.85;2.58;;;;;;;20.51;100.00;100518.31;5051565;28;20057;-73
2023/07/15 10:29:25;;;;;;;3.75;2.72;;;;;;;20.77;100.00;100527.91;5057209;28;20039;-73
2023/07/15 10:32:10;;;;;;;4.60;2.72;;;;;;;20.95;100.00;100527.53;5058671;28;20057;-73
2023/07/15 10:34:41;;;;;;;4.47;2.83;;;;;;;21.08;100.00;100528.34;5057624;28;20107;-73
2023/07/15 10:37:09;;;;;;;5.38;2.78;;;;;;;21.22;100.00;100514.94;5058891;28;20062;-73
2023/07/15 10:39:34;;;;;;;4.60;2.67;;;;;;;21.57;100.00;100524.75;5057491;28;20484;-73
2023/07/15 10:42:10;;;;;;;4.60;2.55;;;;;;;21.86;100.00;100529.69;5062487;28;20048;-73
2023/07/15 10:44:51;;;;;;;5.28;2.90;;;;;;;21.90;100.00;100531.16;5057148;28;20028;-74
2023/07/15 10:47:16;;;;;;;7.95;2.80;;;;;;;22.05;100.00;100529.16;5054483;28;20028;-74
2023/07/15 10:49:43;;;;;;;7.57;2.58;;;;;;;22.39;100.00;100543.34;5054992;28;20029;-73
2023/07/15 10:52:09;;;;;;;5.30;2.50;;;;;;;22.87;100.00;100513.88;5057171;28;20054;-73
2023/07/15 10:54:37;;;;;;;3.22;2.30;;;;;;;23.48;97.80;100519.56;5055618;28;20104;-73
2023/07/15 10:57:14;;;;;;;6.07;2.65;;;;;;;23.93;91.51;100527.34;5057261;28;20032;-75
2023/07/15 10:59:41;;;;;;;4.43;2.42;;;;;;;23.81;87.73;100531.06;5053667;28;20063;-73
2023/07/15 11:02:07;;;;;;;11.43;4.72;;;;;;;;;;5056155;28;20029;-74
2023/07/15 11:04:34;;;;;;;8.38;4.82;;;;;;;23.53;87.91;100517.34;5056239;28;20036;-74
2023/07/15 11:07:01;;;;;;;9.25;3.83;;;;;;;23.44;93.12;100526.09;5058559;28;20100;-73
2023/07/15 11:09:28;;;;;;;7.55;3.83;;;;;;;23.83;87.88;100543.25;5060905;28;20174;-73
2023/07/15 11:11:53;;;;;;;4.90;2.85;;;;;;;24.41;85.78;100526.81;5063478;28;20074;-73
2023/07/15 11:14:24;;;;;;;3.65;2.33;;;;;;;24.81;86.44;100527.81;5057565;28;20103;-73
2023/07/15 11:16:51;;;;;;;2.95;2.30;;;;;;;25.40;82.16;100527.81;5063104;28;20025;-74
2023/07/15 11:19:16;;;;;;;4.15;2.05;;;;;;;25.71;73.92;100533.03;5061711;28;20059;-74
2023/07/15 11:21:43;;;;;;;5.95;2.15;;;;;;;25.46;70.56;100524.59;5053747;28;20061;-73
2023/07/15 11:24:12;;;;;;;5.00;2.20;;;;;;;25.14;70.08;100529.34;5059972;28;20121;-73